Time;durP1;ratioP1;P1;durP2;ratioP2;P2;SDS_P1;SDS_P2;PMS_P1;PMS_P2;Temp;Humidity;BMP_temperature;BMP_pressure;BME280_temperature;BME280_humidity;BME280_pressure;Samples;Min_cycle;Max_cycle;Signal;HPM_P1;HPM_P2
2023/06/29 00:01:03;;;;;;;9.70;4.82;;;20.40;99.90;;;;;;5064697;28;20165;-62
2023/06/29 00:03:32;;;;;;;9.70;5.85;;;20.50;99.90;;;;;;5062236;28;20130;-62
2023/06/29 00:05:59;;;;;;;11.48;5.72;;;20.50;99.90;;;;;;5045705;28;20064;-61
2023/06/29 00:08:26;;;;;;;10.27;5.45;;;20.50;99.90;;;;;;5044808;28;20068;-63
2023/06/29 00:10:56;;;;;;;11.55;5.65;;;20.40;99.90;;;;;;5065554;28;20040;-62
2023/06/29 00:13:22;;;;;;;9.98;6.30;;;20.40;99.90;;;;;;5064880;28;20095;-61
2023/06/29 00:15:48;;;;;;;8.93;5.63;;;20.40;99.90;;;;;;5064109;28;20039;-61
2023/06/29 00:18:15;;;;;;;11.52;6.10;;;20.40;99.90;;;;;;5064107;28;20029;-61
2023/06/29 00:20:41;;;;;;;9.13;5.60;;;20.50;99.90;;;;;;5065652;28;20396;-61
2023/06/29 00:23:07;;;;;;;15.10;5.88;;;20.50;99.90;;;;;;5068285;28;20033;-61
2023/06/29 00:25:33;;;;;;;10.65;5.43;;;20.40;99.90;;;;;;5067696;28;20400;-61
2023/06/29 00:27:59;;;;;;;10.82;6.18;;;20.60;99.90;;;;;;5068788;28;20081;-61
2023/06/29 00:30:25;;;;;;;13.75;6.97;;;20.60;99.90;;;;;;5068415;28;20044;-63
2023/06/29 00:32:51;;;;;;;11.13;5.97;;;20.70;99.90;;;;;;5068845;28;20047;-60
2023/06/29 00:35:17;;;;;;;11.75;6.00;;;20.60;99.90;;;;;;5068137;28;20028;-62
2023/06/29 00:37:42;;;;;;;8.50;5.20;;;20.50;99.90;;;;;;5067950;28;20052;-61
2023/06/29 00:40:09;;;;;;;12.88;5.80;;;20.50;99.90;;;;;;5068378;28;20116;-60
2023/06/29 00:42:36;;;;;;;10.23;6.43;;;20.40;99.90;;;;;;5068554;28;20055;-61
2023/06/29 00:45:03;;;;;;;9.75;5.93;;;20.40;99.90;;;;;;5068157;28;20204;-60
2023/06/29 00:47:30;;;;;;;11.77;6.28;;;20.40;99.90;;;;;;5067290;28;20043;-62
2023/06/29 00:49:56;;;;;;;13.85;6.20;;;20.40;99.90;;;;;;5068656;28;20050;-61
2023/06/29 00:52:23;;;;;;;11.13;5.80;;;20.40;99.90;;;;;;5068090;28;20081;-60
2023/06/29 00:54:49;;;;;;;12.93;5.95;;;20.40;99.90;;;;;;5068213;28;20033;-61
2023/06/29 00:57:15;;;;;;;15.00;6.00;;;20.50;99.90;;;;;;5067669;28;20044;-60
2023/06/29 00:59:41;;;;;;;10.65;5.97;;;20.50;99.90;;;;;;5067969;28;20102;-61
2023/06/29 01:02:08;;;;;;;11.38;5.95;;;20.50;99.90;;;;;;5068273;28;20044;-59
2023/06/29 01:04:35;;;;;;;10.65;5.60;;;20.50;99.90;;;;;;5067940;28;20040;-62
2023/06/29 01:07:13;;;;;;;11.85;5.88;;;20.60;99.90;;;;;;5068011;28;20451;-61
2023/06/29 01:09:39;;;;;;;14.05;5.90;;;20.50;99.90;;;;;;5067544;28;20036;-61
2023/06/29 01:12:09;;;;;;;10.98;6.15;;;20.50;99.90;;;;;;5068057;28;20503;-61
2023/06/29 01:14:37;;;;;;;13.52;5.70;;;20.50;99.90;;;;;;5068137;28;20043;-61
2023/06/29 01:17:03;;;;;;;12.25;5.75;;;20.50;99.90;;;;;;5068425;28;20714;-60
2023/06/29 01:19:31;;;;;;;10.02;5.38;;;20.50;99.90;;;;;;5067460;28;20488;-61
2023/06/29 01:22:03;;;;;;;9.98;5.40;;;20.50;99.90;;;;;;5066839;28;20040;-61
2023/06/29 01:24:50;;;;;;;10.45;5.20;;;20.50;99.90;;;;;;5067022;28;20463;-61
2023/06/29 01:27:16;;;;;;;12.90;5.82;;;20.50;99.90;;;;;;5066134;28;20492;-62
2023/06/29 01:29:41;;;;;;;14.05;6.13;;;20.60;99.90;;;;;;5067662;28;20062;-61
2023/06/29 01:32:08;;;;;;;10.05;5.40;;;20.60;99.90;;;;;;5066543;28;20536;-60
2023/06/29 01:34:35;;;;;;;10.38;6.07;;;20.50;99.90;;;;;;5066546;28;20037;-60
2023/06/29 01:37:12;;;;;;;12.85;5.68;;;20.50;99.90;;;;;;5067816;28;20494;-62
2023/06/29 01:39:58;;;;;;;12.18;5.82;;;20.50;99.90;;;;;;5067660;28;20056;-61
2023/06/29 01:42:25;;;;;;;9.70;5.63;;;20.50;99.90;;;;;;5067386;28;20042;-61
2023/06/29 01:44:51;;;;;;;10.25;5.75;;;20.50;99.90;;;;;;5067308;28;20044;-61
2023/06/29 01:47:18;;;;;;;11.73;6.28;;;20.40;99.90;;;;;;5068332;28;20036;-61
2023/06/29 01:49:44;;;;;;;13.52;6.00;;;20.50;99.90;;;;;;5067432;28;20036;-61
2023/06/29 01:52:10;;;;;;;14.00;6.18;;;20.50;99.90;;;;;;5067168;28;20476;-60
2023/06/29 01:54:36;;;;;;;10.20;5.82;;;20.50;99.90;;;;;;5055082;28;20033;-61
2023/06/29 01:57:05;;;;;;;11.27;5.57;;;20.40;99.90;;;;;;5062542;28;20609;-59
2023/06/29 01:59:31;;;;;;;11.57;6.22;;;20.40;99.90;;;;;;5067350;28;20143;-60
2023/06/29 02:01:56;;;;;;;8.60;5.45;;;20.40;99.90;;;;;;5067526;28;20074;-61
2023/06/29 02:04:22;;;;;;;10.38;5.80;;;20.40;99.90;;;;;;5065845;28;20477;-61
2023/06/29 02:06:48;;;;;;;10.63;5.22;;;20.40;99.90;;;;;;5066567;28;20492;-61
2023/06/29 02:09:13;;;;;;;10.88;5.55;;;20.40;99.90;;;;;;5066459;28;20071;-61
2023/06/29 02:11:39;;;;;;;12.88;5.68;;;20.40;99.90;;;;;;5066586;28;20115;-61
2023/06/29 02:14:05;;;;;;;9.43;5.55;;;20.30;99.90;;;;;;5066669;28;20060;-60
2023/06/29 02:16:30;;;;;;;11.32;5.90;;;20.20;99.90;;;;;;5054487;28;20048;-60
2023/06/29 02:18:56;;;;;;;9.38;5.78;;;20.10;99.90;;;;;;5065892;28;20041;-60
2023/06/29 02:21:21;;;;;;;10.35;6.22;;;20.20;99.90;;;;;;5066102;28;20094;-60
2023/06/29 02:23:47;;;;;;;10.88;5.57;;;20.10;99.90;;;;;;5066772;28;20415;-60
2023/06/29 02:26:12;;;;;;;9.52;5.93;;;20.30;99.90;;;;;;5065327;28;20032;-60
2023/06/29 02:28:38;;;;;;;13.68;6.40;;;20.20;99.90;;;;;;5046823;28;20052;-60
2023/06/29 02:31:03;;;;;;;10.82;5.57;;;20.10;99.90;;;;;;5054083;28;20457;-60
2023/06/29 02:33:29;;;;;;;10.32;6.18;;;20.30;99.90;;;;;;5066452;28;20067;-62
2023/06/29 02:35:55;;;;;;;10.10;5.85;;;20.20;99.90;;;;;;5066502;28;20067;-61
2023/06/29 02:38:20;;;;;;;9.77;5.57;;;20.10;99.90;;;;;;5056136;28;20051;-61
2023/06/29 02:40:46;;;;;;;9.13;5.03;;;20.10;99.90;;;;;;5066144;28;20399;-61
2023/06/29 02:43:12;;;;;;;9.25;5.78;;;20.10;99.90;;;;;;5066316;28;20521;-60
2023/06/29 02:45:37;;;;;;;9.15;5.85;;;20.10;99.90;;;;;;5066547;28;20025;-60
2023/06/29 02:48:03;;;;;;;9.25;5.78;;;20.20;99.90;;;;;;5066297;28;20388;-60
2023/06/29 02:50:28;;;;;;;9.75;5.93;;;20.20;99.90;;;;;;5064539;28;20047;-60
2023/06/29 02:52:54;;;;;;;14.57;6.20;;;20.10;99.90;;;;;;5066261;28;20051;-62
2023/06/29 02:55:23;;;;;;;9.88;5.75;;;20.10;99.90;;;;;;5065632;28;20025;-60
2023/06/29 02:57:48;;;;;;;11.90;5.70;;;20.10;99.90;;;;;;5066575;28;20037;-61
2023/06/29 03:00:14;;;;;;;13.57;5.43;;;20.10;99.90;;;;;;5065872;28;20098;-60
2023/06/29 03:02:40;;;;;;;8.48;5.32;;;20.00;99.90;;;;;;5066483;28;20028;-61
2023/06/29 03:05:06;;;;;;;12.65;5.90;;;20.00;99.90;;;;;;5065769;28;20124;-60
2023/06/29 03:07:32;;;;;;;12.00;5.82;;;20.20;99.90;;;;;;5066333;28;20387;-61
2023/06/29 03:09:58;;;;;;;14.13;5.97;;;20.10;99.90;;;;;;5066309;28;20133;-61
2023/06/29 03:12:24;;;;;;;11.20;6.25;;;20.20;99.90;;;;;;5065134;28;20127;-60
2023/06/29 03:14:49;;;;;;;12.48;5.60;;;20.10;99.90;;;;;;5065793;28;20029;-60
2023/06/29 03:17:15;;;;;;;11.13;6.00;;;20.10;99.90;;;;;;5066922;28;20028;-60
2023/06/29 03:19:41;;;;;;;12.48;5.50;;;20.20;99.90;;;;;;5065477;28;20365;-61
2023/06/29 03:22:06;;;;;;;9.00;5.70;;;20.10;99.90;;;;;;5064424;28;20036;-59
2023/06/29 03:24:32;;;;;;;9.98;5.55;;;20.10;99.90;;;;;;5065108;28;20039;-60
2023/06/29 03:26:58;;;;;;;7.75;5.50;;;20.00;99.90;;;;;;5064317;28;20119;-62
2023/06/29 03:29:23;;;;;;;9.63;5.68;;;20.00;99.90;;;;;;5065734;28;20047;-60
2023/06/29 03:31:49;;;;;;;10.30;5.90;;;19.90;99.90;;;;;;5065984;28;20032;-61
2023/06/29 03:34:14;;;;;;;9.90;6.05;;;20.00;99.90;;;;;;5059803;28;20593;-61
2023/06/29 03:36:40;;;;;;;7.88;5.53;;;20.00;99.90;;;;;;5065475;28;20032;-62
2023/06/29 03:39:05;;;;;;;11.48;5.63;;;20.00;99.90;;;;;;5065462;28;20028;-60
2023/06/29 03:41:31;;;;;;;12.63;6.20;;;19.90;99.90;;;;;;5065977;28;20036;-61
2023/06/29 03:43:57;;;;;;;9.90;5.85;;;20.00;99.90;;;;;;5065192;28;20037;-61
2023/06/29 03:46:23;;;;;;;7.78;5.70;;;20.00;99.90;;;;;;5066002;28;20105;-61
2023/06/29 03:48:49;;;;;;;11.35;5.90;;;20.00;99.90;;;;;;5065139;28;20497;-61
2023/06/29 03:51:14;;;;;;;11.32;5.57;;;20.00;99.90;;;;;;5065524;28;20040;-60
2023/06/29 03:53:40;;;;;;;11.50;5.95;;;20.00;99.90;;;;;;5065691;28;20059;-61
2023/06/29 03:56:06;;;;;;;9.93;5.53;;;20.00;99.90;;;;;;5064038;28;20362;-60
2023/06/29 03:58:31;;;;;;;10.93;6.07;;;20.00;99.90;;;;;;5069614;28;20114;-61
2023/06/29 04:00:57;;;;;;;10.13;5.85;;;20.00;99.90;;;;;;5069523;28;20427;-61
2023/06/29 04:03:22;;;;;;;9.80;5.65;;;20.00;99.90;;;;;;5068710;28;20048;-61
2023/06/29 04:05:48;;;;;;;10.23;6.07;;;20.00;99.90;;;;;;5068591;28;20036;-61
2023/06/29 04:08:13;;;;;;;11.98;6.03;;;20.00;99.90;;;;;;5068796;28;20044;-60
2023/06/29 04:10:39;;;;;;;11.38;5.80;;;20.10;99.90;;;;;;5069336;28;20021;-61
2023/06/29 04:13:05;;;;;;;10.35;6.18;;;20.10;99.90;;;;;;5068821;28;20062;-62
2023/06/29 04:15:31;;;;;;;12.07;5.93;;;20.10;99.90;;;;;;5070255;28;20105;-61
2023/06/29 04:17:57;;;;;;;10.25;5.75;;;20.10;99.90;;;;;;5067836;28;20036;-62
2023/06/29 04:20:22;;;;;;;11.38;6.00;;;20.10;99.90;;;;;;5068598;28;20032;-61
2023/06/29 04:22:48;;;;;;;10.13;5.82;;;20.00;99.90;;;;;;5069333;28;20039;-62
2023/06/29 04:25:13;;;;;;;10.07;6.32;;;20.00;99.90;;;;;;5068487;28;20083;-60
2023/06/29 04:27:39;;;;;;;8.93;5.78;;;20.00;99.90;;;;;;5068075;28;20025;-62
2023/06/29 04:30:05;;;;;;;12.82;6.60;;;19.90;99.90;;;;;;5068323;28;20051;-60
2023/06/29 04:32:31;;;;;;;9.90;6.00;;;19.90;99.90;;;;;;5068609;28;20584;-61
2023/06/29 04:34:57;;;;;;;13.25;6.30;;;19.90;99.90;;;;;;5068670;28;20041;-61
2023/06/29 04:37:22;;;;;;;10.05;6.10;;;20.00;99.90;;;;;;5068605;28;20373;-61
2023/06/29 04:39:48;;;;;;;12.00;6.55;;;20.00;99.90;;;;;;5068441;28;20032;-60
2023/06/29 04:42:16;;;;;;;10.45;6.22;;;20.00;99.90;;;;;;5068027;28;20333;-60
2023/06/29 04:44:44;;;;;;;11.85;6.63;;;20.00;99.90;;;;;;5068261;28;20044;-61
2023/06/29 04:47:10;;;;;;;12.95;7.03;;;20.00;99.90;;;;;;5068150;28;20044;-60
2023/06/29 04:49:37;;;;;;;13.20;6.82;;;20.20;99.90;;;;;;5068304;28;20040;-61
2023/06/29 04:52:06;;;;;;;12.57;6.90;;;20.10;99.90;;;;;;5068262;28;20102;-60
2023/06/29 04:54:32;;;;;;;10.10;6.78;;;20.10;99.90;;;;;;5067326;28;20036;-61
2023/06/29 04:56:59;;;;;;;12.35;7.18;;;20.00;99.90;;;;;;5068063;28;20045;-61
2023/06/29 04:59:26;;;;;;;13.43;7.20;;;20.00;99.90;;;;;;5068069;28;20488;-61
2023/06/29 05:01:52;;;;;;;13.45;7.07;;;20.10;99.90;;;;;;5068044;28;20048;-62
2023/06/29 05:04:17;;;;;;;14.02;7.95;;;20.40;99.90;;;;;;5068145;28;20406;-61
2023/06/29 05:06:43;;;;;;;13.98;7.43;;;20.30;99.90;;;;;;5067991;28;20382;-61
2023/06/29 05:09:08;;;;;;;12.77;7.22;;;20.20;99.90;;;;;;5067300;28;20097;-61
2023/06/29 05:11:37;;;;;;;16.17;7.65;;;20.20;99.90;;;;;;5067672;28;20037;-62
2023/06/29 05:14:02;;;;;;;13.95;7.95;;;20.30;99.90;;;;;;5067841;28;20028;-60
2023/06/29 05:16:28;;;;;;;12.75;7.75;;;20.30;99.90;;;;;;5069005;28;20125;-61
2023/06/29 05:18:54;;;;;;;16.17;8.15;;;20.30;99.90;;;;;;5068016;28;20037;-62
2023/06/29 05:21:21;;;;;;;14.95;8.20;;;20.30;99.90;;;;;;5067723;28;20032;-61
2023/06/29 05:23:47;;;;;;;15.23;8.25;;;20.40;99.90;;;;;;5054526;28;20033;-61
2023/06/29 05:26:12;;;;;;;12.52;8.15;;;20.40;99.90;;;;;;5046750;28;20037;-60
2023/06/29 05:28:38;;;;;;;13.27;7.55;;;20.40;99.90;;;;;;5047832;28;20037;-62
2023/06/29 05:31:03;;;;;;;11.73;7.60;;;20.40;99.90;;;;;;5062016;28;20043;-60
2023/06/29 05:33:29;;;;;;;15.88;8.75;;;20.40;99.90;;;;;;5067135;28;20045;-61
2023/06/29 05:35:55;;;;;;;13.98;7.97;;;20.50;99.90;;;;;;5067450;28;20079;-61
2023/06/29 05:38:20;;;;;;;13.05;7.50;;;20.50;99.90;;;;;;5067256;28;20657;-60
2023/06/29 05:40:46;;;;;;;12.98;7.32;;;20.50;99.90;;;;;;5067429;28;20027;-61
2023/06/29 05:43:12;;;;;;;10.98;7.40;;;20.60;99.90;;;;;;5066980;28;20233;-60
2023/06/29 05:45:37;;;;;;;13.52;7.65;;;20.70;99.90;;;;;;5062336;28;20043;-61
2023/06/29 05:48:03;;;;;;;12.23;7.32;;;20.60;99.90;;;;;;5067223;28;20105;-60
2023/06/29 05:50:29;;;;;;;9.77;6.38;;;20.50;99.90;;;;;;5067099;28;20024;-61
2023/06/29 05:52:54;;;;;;;13.35;7.25;;;20.60;99.90;;;;;;5067507;28;20119;-61
2023/06/29 05:55:20;;;;;;;14.07;7.07;;;20.70;99.90;;;;;;5064521;28;20128;-61
2023/06/29 05:57:46;;;;;;;11.50;6.97;;;20.80;99.90;;;;;;5066763;28;20036;-61
2023/06/29 06:00:12;;;;;;;9.48;6.60;;;20.90;99.90;;;;;;5066817;28;20029;-61
2023/06/29 06:02:40;;;;;;;14.23;6.78;;;20.90;99.90;;;;;;5067561;28;20113;-61
2023/06/29 06:05:09;;;;;;;13.98;7.50;;;20.80;99.90;;;;;;5066304;28;20519;-60
2023/06/29 06:07:35;;;;;;;10.80;7.28;;;20.80;99.90;;;;;;5054047;28;20063;-61
2023/06/29 06:10:01;;;;;;;15.90;7.32;;;20.90;99.90;;;;;;5060336;28;20620;-61
2023/06/29 06:12:27;;;;;;;15.00;7.88;;;21.10;99.90;;;;;;5066972;28;20041;-62
2023/06/29 06:14:53;;;;;;;13.73;7.82;;;21.00;99.90;;;;;;5065609;28;20066;-61
2023/06/29 06:17:18;;;;;;;12.90;7.78;;;21.10;99.90;;;;;;5066775;28;20040;-62
2023/06/29 06:19:44;;;;;;;14.73;8.38;;;21.10;99.90;;;;;;5066220;28;20082;-61
2023/06/29 06:22:10;;;;;;;15.23;8.13;;;21.10;99.90;;;;;;5066080;28;20382;-60
2023/06/29 06:24:36;;;;;;;13.45;8.05;;;21.00;99.90;;;;;;5066775;28;20031;-61
2023/06/29 06:27:01;;;;;;;14.68;8.18;;;20.90;99.90;;;;;;5066456;28;20464;-61
2023/06/29 06:29:27;;;;;;;13.63;7.80;;;21.00;99.90;;;;;;5065696;28;20499;-60
2023/06/29 06:31:53;;;;;;;15.13;7.90;;;21.10;99.90;;;;;;5066481;28;20044;-61
2023/06/29 06:34:19;;;;;;;14.05;8.30;;;21.10;99.90;;;;;;5066143;28;20037;-61
2023/06/29 06:36:47;;;;;;;14.23;8.23;;;21.10;99.90;;;;;;5066231;28;20043;-61
2023/06/29 06:39:14;;;;;;;14.20;8.48;;;21.10;99.90;;;;;;5065510;28;20056;-61
2023/06/29 06:41:40;;;;;;;13.25;8.38;;;21.20;99.90;;;;;;5066494;28;20036;-61
2023/06/29 06:44:06;;;;;;;14.23;8.70;;;21.30;99.90;;;;;;5066242;28;20032;-60
2023/06/29 06:46:32;;;;;;;12.45;8.35;;;21.30;99.90;;;;;;5065911;28;20055;-62
2023/06/29 06:48:57;;;;;;;14.88;8.25;;;21.30;99.90;;;;;;5066183;28;20083;-61
2023/06/29 06:51:25;;;;;;;17.63;8.73;;;21.40;99.90;;;;;;5065052;28;20571;-61
2023/06/29 06:53:50;;;;;;;15.93;8.98;;;21.50;99.90;;;;;;5066639;28;20106;-61
2023/06/29 06:56:16;;;;;;;13.65;8.07;;;21.60;99.90;;;;;;5065337;28;20095;-60
2023/06/29 06:58:42;;;;;;;15.27;8.57;;;21.50;99.90;;;;;;5066095;28;20040;-61
2023/06/29 07:01:07;;;;;;;17.67;9.15;;;21.60;99.90;;;;;;5065866;28;20426;-61
2023/06/29 07:03:33;;;;;;;15.95;8.98;;;21.50;99.90;;;;;;5046363;28;20041;-61
2023/06/29 07:05:58;;;;;;;16.80;9.30;;;21.60;99.90;;;;;;5045776;28;20048;-61
2023/06/29 07:08:24;;;;;;;18.75;8.93;;;21.60;99.90;;;;;;5045750;28;20036;-61
2023/06/29 07:10:51;;;;;;;15.43;9.38;;;21.70;99.90;;;;;;5066285;28;20033;-63
2023/06/29 07:13:18;;;;;;;15.65;8.90;;;21.60;99.90;;;;;;5064337;28;20039;-60
2023/06/29 07:15:45;;;;;;;16.92;9.57;;;21.70;99.90;;;;;;5067144;28;20804;-62
2023/06/29 07:18:10;;;;;;;12.98;8.52;;;21.60;99.90;;;;;;5064451;28;20491;-61
2023/06/29 07:20:36;;;;;;;16.60;9.77;;;21.70;99.90;;;;;;5066087;28;20032;-61
2023/06/29 07:23:01;;;;;;;18.73;10.85;;;21.70;99.90;;;;;;5065869;28;20044;-60
2023/06/29 07:25:28;;;;;;;19.83;10.85;;;21.60;99.90;;;;;;5064635;28;20120;-61
2023/06/29 07:27:54;;;;;;;18.42;11.50;;;21.50;99.90;;;;;;5065749;28;20043;-61
2023/06/29 07:30:20;;;;;;;21.50;11.48;;;21.60;99.90;;;;;;5065382;28;20404;-60
2023/06/29 07:32:45;;;;;;;23.00;11.25;;;21.50;99.90;;;;;;5067740;28;20119;-61
2023/06/29 07:35:11;;;;;;;16.90;11.30;;;21.40;99.90;;;;;;5068606;28;20037;-60
2023/06/29 07:37:37;;;;;;;18.60;10.95;;;21.50;99.90;;;;;;5069493;28;20569;-61
2023/06/29 07:40:04;;;;;;;22.15;12.40;;;21.50;99.90;;;;;;5069809;28;20037;-60
2023/06/29 07:42:30;;;;;;;19.02;11.10;;;21.60;99.90;;;;;;5068132;28;20041;-62
2023/06/29 07:44:55;;;;;;;21.40;11.55;;;21.80;99.90;;;;;;5068022;28;20036;-62
2023/06/29 07:47:21;;;;;;;22.15;11.40;;;21.60;99.90;;;;;;5062394;28;20052;-61
2023/06/29 07:49:46;;;;;;;20.25;11.88;;;21.70;99.90;;;;;;5055090;28;20033;-61
2023/06/29 07:52:12;;;;;;;17.60;10.93;;;21.70;99.90;;;;;;5069852;28;20032;-62
2023/06/29 07:54:37;;;;;;;18.85;11.23;;;21.70;99.90;;;;;;5069493;28;20124;-61
2023/06/29 07:57:03;;;;;;;25.02;12.57;;;21.70;99.90;;;;;;5067935;28;20028;-60
2023/06/29 07:59:29;;;;;;;18.75;11.52;;;21.70;99.90;;;;;;5069525;28;20191;-62
2023/06/29 08:01:55;;;;;;;18.88;11.57;;;21.90;99.90;;;;;;5069502;28;20067;-62
2023/06/29 08:04:20;;;;;;;21.35;11.45;;;21.80;99.90;;;;;;5068913;28;20040;-61
2023/06/29 08:06:46;;;;;;;21.02;12.32;;;21.80;99.90;;;;;;5069476;28;20241;-62
2023/06/29 08:09:11;;;;;;;24.73;12.45;;;21.90;99.90;;;;;;5068065;28;20078;-61
2023/06/29 08:11:38;;;;;;;19.63;11.15;;;21.90;99.90;;;;;;5069465;28;20078;-62
2023/06/29 08:14:04;;;;;;;17.23;11.02;;;21.80;99.90;;;;;;5068589;28;20036;-60
2023/06/29 08:16:30;;;;;;;22.67;11.52;;;21.80;99.90;;;;;;5070411;28;20041;-61
2023/06/29 08:18:56;;;;;;;19.48;11.02;;;21.90;99.90;;;;;;5063012;28;20336;-61
2023/06/29 08:21:21;;;;;;;19.50;10.98;;;21.80;99.90;;;;;;5067362;28;20044;-61
2023/06/29 08:23:49;;;;;;;16.63;11.70;;;21.90;99.90;;;;;;5069522;28;20135;-62
2023/06/29 08:26:15;;;;;;;16.50;10.75;;;21.90;99.90;;;;;;5068177;28;20036;-61
2023/06/29 08:28:41;;;;;;;21.52;11.68;;;21.90;99.90;;;;;;5068400;28;20047;-61
2023/06/29 08:31:06;;;;;;;18.13;12.32;;;22.10;99.90;;;;;;5060207;28;20028;-60
2023/06/29 08:33:32;;;;;;;19.08;11.40;;;22.10;99.90;;;;;;5069147;28;20048;-61
2023/06/29 08:35:58;;;;;;;23.35;12.70;;;22.10;99.90;;;;;;5068399;28;20060;-62
2023/06/29 08:38:23;;;;;;;18.88;11.75;;;22.20;99.90;;;;;;5068253;28;20042;-61
2023/06/29 08:40:49;;;;;;;20.45;11.93;;;22.30;99.90;;;;;;5063561;28;20037;-61
2023/06/29 08:43:15;;;;;;;19.67;12.45;;;22.30;99.90;;;;;;5058159;28;20033;-61
2023/06/29 08:45:42;;;;;;;18.40;11.93;;;22.20;99.90;;;;;;5068391;28;20031;-62
2023/06/29 08:48:09;;;;;;;18.60;12.07;;;22.20;99.90;;;;;;5068103;28;20059;-61
2023/06/29 08:50:37;;;;;;;24.60;12.93;;;22.30;99.90;;;;;;5068630;28;20032;-62
2023/06/29 08:53:03;;;;;;;25.05;13.00;;;22.40;99.90;;;;;;5067573;28;20024;-61
2023/06/29 08:55:29;;;;;;;28.00;13.55;;;22.80;99.90;;;;;;5068126;28;20028;-61
2023/06/29 08:57:54;;;;;;;21.95;13.20;;;21.90;99.90;;;;;;5068576;28;20060;-62
2023/06/29 09:00:22;;;;;;;24.30;13.75;;;22.50;99.90;;;;;;5067997;28;20059;-62
2023/06/29 09:02:51;;;;;;;24.13;12.65;;;22.50;99.90;;;;;;5067861;28;20037;-61
2023/06/29 09:05:17;;;;;;;22.17;13.48;;;22.70;99.90;;;;;;5067500;28;20033;-61
2023/06/29 09:07:42;;;;;;;22.77;13.80;;;22.80;99.90;;;;;;5068300;28;20091;-62
2023/06/29 09:10:11;;;;;;;24.20;13.80;;;23.20;99.90;;;;;;5067748;28;20052;-61
2023/06/29 09:12:36;;;;;;;20.35;13.45;;;23.20;99.90;;;;;;5068529;28;20214;-61
2023/06/29 09:15:13;;;;;;;24.95;14.43;;;23.30;99.90;;;;;;5067539;28;20037;-61
2023/06/29 09:17:44;;;;;;;21.30;14.23;;;23.30;99.90;;;;;;5056562;28;20063;-63
2023/06/29 09:20:13;;;;;;;25.42;13.75;;;23.30;99.90;;;;;;5066775;28;20028;-61
2023/06/29 09:22:39;;;;;;;22.40;13.65;;;23.40;99.90;;;;;;5068742;28;20093;-62
2023/06/29 09:25:09;;;;;;;22.25;14.45;;;23.60;99.90;;;;;;5066402;28;20087;-61
2023/06/29 09:27:35;;;;;;;24.20;14.48;;;23.70;99.90;;;;;;5065509;28;20075;-61
2023/06/29 09:30:03;;;;;;;24.55;14.57;;;23.70;99.90;;;;;;5065961;28;20060;-62
2023/06/29 09:32:29;;;;;;;21.42;13.10;;;23.70;99.90;;;;;;5057510;28;20040;-62
2023/06/29 09:34:55;;;;;;;20.65;14.80;;;23.80;99.90;;;;;;5061910;28;20408;-62
2023/06/29 09:37:21;;;;;;;22.10;14.60;;;24.00;99.90;;;;;;5064938;28;20033;-61
2023/06/29 09:39:56;;;;;;;25.45;15.60;;;23.60;99.90;;;;;;5068252;28;20551;-61
2023/06/29 09:42:23;;;;;;;27.38;15.68;;;24.30;99.90;;;;;;5066884;28;20047;-61
2023/06/29 09:44:48;;;;;;;23.98;15.55;;;24.30;99.90;;;;;;5067191;28;20340;-61
2023/06/29 09:47:14;;;;;;;25.42;15.98;;;24.40;99.90;;;;;;5065869;28;20046;-61
2023/06/29 09:49:50;;;;;;;31.75;19.13;;;24.40;99.90;;;;;;5067583;28;20041;-63
2023/06/29 09:52:16;;;;;;;30.00;19.08;;;24.50;99.90;;;;;;5067309;28;20044;-61
2023/06/29 09:54:42;;;;;;;27.17;17.73;;;24.50;99.90;;;;;;5066189;28;20032;-62
2023/06/29 09:57:13;;;;;;;29.17;18.52;;;24.50;99.90;;;;;;5066698;28;20032;-61
2023/06/29 09:59:40;;;;;;;31.33;19.20;;;24.30;99.90;;;;;;5054191;28;20049;-62
2023/06/29 10:02:09;;;;;;;30.65;20.95;;;24.30;99.90;;;;;;5063578;28;20040;-61
2023/06/29 10:04:39;;;;;;;32.72;21.30;;;24.20;99.90;;;;;;5067071;28;20366;-62
2023/06/29 10:07:11;;;;;;;29.90;20.70;;;24.10;99.90;;;;;;5066796;28;20033;-61
2023/06/29 10:09:41;;;;;;;30.90;20.85;;;24.10;99.90;;;;;;5062193;28;20037;-62
2023/06/29 10:12:09;;;;;;;32.17;20.42;;;24.10;99.90;;;;;;5046639;28;20032;-61
2023/06/29 10:14:37;;;;;;;27.48;19.60;;;24.20;99.90;;;;;;5047096;28;20043;-62
2023/06/29 10:17:07;;;;;;;30.95;20.40;;;24.40;99.90;;;;;;5064593;28;20408;-61
2023/06/29 10:19:34;;;;;;;32.88;20.45;;;24.30;99.90;;;;;;5066697;28;20521;-61
2023/06/29 10:22:05;;;;;;;27.63;20.20;;;24.30;99.90;;;;;;5051360;28;20102;-62
2023/06/29 10:24:53;;;;;;;34.03;20.33;;;24.30;99.90;;;;;;5054943;28;20496;-61
2023/06/29 10:27:20;;;;;;;32.45;21.25;;;24.40;99.90;;;;;;5066248;28;20041;-62
2023/06/29 10:29:48;;;;;;;29.55;21.60;;;24.40;99.90;;;;;;5066901;28;20508;-61
2023/06/29 10:32:30;;;;;;;30.00;20.20;;;24.40;99.90;;;;;;5065841;27;20051;-62
2023/06/29 10:35:01;;;;;;;33.70;20.88;;;24.40;99.90;;;;;;5065412;28;20496;-62
2023/06/29 10:37:34;;;;;;;29.10;20.48;;;24.30;99.90;;;;;;5066919;28;20040;-62
2023/06/29 10:40:00;;;;;;;30.73;20.30;;;24.30;99.90;;;;;;5065604;28;20571;-64
2023/06/29 10:42:25;;;;;;;29.17;20.42;;;24.30;99.90;;;;;;5065282;28;20267;-62
2023/06/29 10:44:51;;;;;;;32.83;20.63;;;24.30;99.90;;;;;;5065728;28;20033;-64
2023/06/29 10:47:27;;;;;;;30.52;20.77;;;24.20;99.90;;;;;;5066281;28;20049;-63
2023/06/29 10:50:11;;;;;;;32.72;20.95;;;24.20;99.90;;;;;;5065291;28;20558;-62
2023/06/29 10:52:37;;;;;;;33.55;20.02;;;24.20;99.90;;;;;;5066315;28;20051;-62
2023/06/29 10:55:19;;;;;;;27.10;18.80;;;24.20;99.90;;;;;;5065197;28;20503;-61
2023/06/29 10:57:47;;;;;;;26.02;18.90;;;24.30;99.90;;;;;;5066306;28;20047;-62
2023/06/29 11:00:14;;;;;;;27.08;18.48;;;24.20;99.90;;;;;;5064289;28;20488;-62
2023/06/29 11:02:41;;;;;;;25.25;17.77;;;24.20;99.90;;;;;;5066785;28;20373;-62
2023/06/29 11:05:10;;;;;;;25.75;16.70;;;24.20;99.90;;;;;;5064459;28;20325;-62
2023/06/29 11:07:37;;;;;;;28.58;18.63;;;24.20;99.90;;;;;;5066193;28;20056;-62
2023/06/29 11:10:04;;;;;;;29.27;17.65;;;24.20;99.90;;;;;;5065686;28;20106;-61
2023/06/29 11:12:29;;;;;;;25.25;17.02;;;24.20;99.90;;;;;;5066450;28;20036;-61
2023/06/29 11:14:55;;;;;;;25.45;17.17;;;24.20;99.90;;;;;;5065758;28;20089;-63
2023/06/29 11:17:22;;;;;;;26.52;17.50;;;24.30;99.90;;;;;;5065455;28;20036;-62
2023/06/29 11:19:49;;;;;;;23.42;17.17;;;24.20;99.90;;;;;;5065929;28;20071;-62
2023/06/29 11:22:18;;;;;;;23.13;16.42;;;24.20;99.90;;;;;;5065364;28;20043;-62
2023/06/29 11:24:44;;;;;;;23.08;16.73;;;24.40;99.90;;;;;;5065807;28;20063;-62
2023/06/29 11:27:10;;;;;;;21.92;16.00;;;24.30;99.90;;;;;;5064661;28;20341;-62
2023/06/29 11:29:36;;;;;;;22.08;15.82;;;24.40;99.90;;;;;;5066241;28;20619;-62
2023/06/29 11:32:02;;;;;;;21.58;14.85;;;24.50;99.90;;;;;;5064143;28;20040;-62
2023/06/29 11:34:28;;;;;;;20.13;14.45;;;24.50;99.90;;;;;;5065484;28;20063;-61
2023/06/29 11:36:55;;;;;;;20.55;14.07;;;24.50;99.90;;;;;;5065419;28;20032;-62
2023/06/29 11:39:20;;;;;;;19.27;13.75;;;24.60;99.90;;;;;;5064802;28;20374;-61
2023/06/29 11:41:47;;;;;;;26.02;15.55;;;24.60;99.90;;;;;;5066045;28;20040;-62
2023/06/29 11:44:13;;;;;;;21.20;14.93;;;24.50;99.90;;;;;;5065490;28;20024;-61
2023/06/29 11:46:39;;;;;;;20.23;15.13;;;24.50;99.90;;;;;;5062903;28;20668;-61
2023/06/29 11:49:06;;;;;;;20.75;15.00;;;24.60;99.90;;;;;;5052603;28;20060;-61
2023/06/29 11:51:38;;;;;;;22.48;14.73;;;24.60;99.90;;;;;;5065611;28;20028;-61
2023/06/29 11:54:04;;;;;;;30.45;16.55;;;24.60;99.90;;;;;;5065389;28;20032;-61
2023/06/29 11:56:38;;;;;;;27.13;15.45;;;24.70;99.90;;;;;;5063839;28;20029;-63
2023/06/29 11:59:05;;;;;;;20.45;15.10;;;24.70;99.90;;;;;;5065128;28;20032;-62
2023/06/29 12:01:31;;;;;;;21.65;14.77;;;24.70;99.90;;;;;;5064916;28;20048;-61
2023/06/29 12:03:57;;;;;;;22.25;15.60;;;24.70;99.90;;;;;;5065635;28;20040;-62
2023/06/29 12:06:22;;;;;;;23.65;15.15;;;24.70;99.90;;;;;;5064679;28;20569;-61
2023/06/29 12:08:51;;;;;;;20.88;14.77;;;24.60;99.90;;;;;;5065832;28;20082;-61
2023/06/29 12:11:19;;;;;;;24.60;15.23;;;24.80;99.90;;;;;;5055789;28;20037;-61
2023/06/29 12:13:50;;;;;;;25.75;15.55;;;24.90;99.90;;;;;;5045348;28;20025;-62
2023/06/29 12:16:17;;;;;;;21.88;14.73;;;25.00;99.90;;;;;;5056445;28;20079;-61
2023/06/29 12:18:43;;;;;;;26.70;16.75;;;25.10;99.90;;;;;;5067687;28;20384;-61
2023/06/29 12:21:08;;;;;;;19.88;13.95;;;25.10;99.90;;;;;;5067959;28;20036;-61
2023/06/29 12:23:34;;;;;;;23.88;13.93;;;25.00;99.90;;;;;;5049299;28;20076;-62
2023/06/29 12:26:00;;;;;;;19.05;13.45;;;25.00;99.90;;;;;;5048720;28;20087;-62
2023/06/29 12:28:25;;;;;;;19.45;13.90;;;25.00;99.90;;;;;;5047066;28;20447;-61
2023/06/29 12:30:51;;;;;;;20.77;13.52;;;25.00;99.90;;;;;;5055140;28;20024;-62